Time;durP1;ratioP1;P1;durP2;ratioP2;P2;SDS_P1;SDS_P2;PMS_P1;PMS_P2;Temp;Humidity;BMP_temperature;BMP_pressure;BME280_temperature;BME280_humidity;BME280_pressure;Samples;Min_cycle;Max_cycle;Signal;HPM_P1;HPM_P2
2022/04/25 00:01:53;;;;;;;;;2.75;2.75;;;24.97;96876.46;;;;116657;1196;24882;-54
2022/04/25 00:04:21;;;;;;;;;1.67;1.67;;;24.96;96867.72;;;;116717;1196;24718;-57
2022/04/25 00:06:49;;;;;;;;;2.00;2.00;;;24.96;96856.56;;;;116799;1198;25577;-56
2022/04/25 00:09:17;;;;;;;;;3.67;3.33;;;24.96;96856.81;;;;116793;1196;25311;-56
2022/04/25 00:11:45;;;;;;;;;2.50;1.50;;;24.97;96848.16;;;;116778;1198;25620;-55
2022/04/25 00:14:14;;;;;;;;;5.25;4.00;;;24.94;96833.95;;;;116745;1197;25220;-58
2022/04/25 00:16:42;;;;;;;;;2.00;2.00;;;24.94;96818.96;;;;116830;1196;24965;-55
2022/04/25 00:19:10;;;;;;;;;0.50;0.50;;;24.96;96826.02;;;;116760;1196;25163;-56
2022/04/25 00:21:38;;;;;;;;;2.33;2.33;;;24.94;96834.17;;;;116411;1199;25512;-56
2022/04/25 00:24:06;;;;;;;;;3.50;3.00;;;24.95;96838.34;;;;116425;1199;25703;-56
2022/04/25 00:26:34;;;;;;;;;4.00;3.25;;;24.92;96844.65;;;;116813;1198;25268;-54
2022/04/25 00:29:02;;;;;;;;;2.50;2.50;;;24.93;96845.41;;;;116731;1197;25255;-56
2022/04/25 00:31:30;;;;;;;;;2.00;2.00;;;24.91;96838.70;;;;116761;1196;25875;-56
2022/04/25 00:33:57;;;;;;;;;3.33;2.00;;;24.91;96827.38;;;;116547;1197;24980;-55
2022/04/25 00:36:25;;;;;;;;;2.00;2.00;;;24.93;96809.38;;;;116770;1197;24881;-56
2022/04/25 00:38:53;;;;;;;;;3.00;3.00;;;24.91;96801.81;;;;116799;1197;25307;-54
2022/04/25 00:41:21;;;;;;;;;3.00;3.00;;;24.92;96812.45;;;;116813;1197;25635;-56
2022/04/25 00:43:55;;;;;;;;;3.00;3.00;;;24.91;96825.52;;;;116489;1197;25363;-55
2022/04/25 00:46:24;;;;;;;;;2.00;2.00;;;24.91;96836.79;;;;116812;1197;24737;-55
2022/04/25 00:48:53;;;;;;;;;3.00;3.00;;;24.95;96839.06;;;;116798;1198;25442;-56
2022/04/25 00:51:21;;;;;;;;;3.00;3.00;;;24.95;96830.69;;;;116782;1196;24749;-56
2022/04/25 00:53:49;;;;;;;;;3.75;2.00;;;24.93;96819.11;;;;116729;1198;24946;-55
2022/04/25 00:56:18;;;;;;;;;4.00;4.00;;;24.92;96811.19;;;;116810;1197;24973;-56
2022/04/25 00:58:46;;;;;;;;;3.50;2.00;;;24.92;96812.57;;;;116774;1196;24947;-56
2022/04/25 01:01:14;;;;;;;;;1.00;1.00;;;24.92;96810.48;;;;116729;1197;25250;-57
2022/04/25 01:03:42;;;;;;;;;4.33;3.00;;;24.92;96802.84;;;;116671;1196;25684;-57
2022/04/25 01:06:11;;;;;;;;;2.00;2.00;;;24.92;96795.89;;;;116501;1196;24839;-56
2022/04/25 01:08:39;;;;;;;;;4.50;3.00;;;24.91;96790.54;;;;116590;1196;25331;-55
2022/04/25 01:11:07;;;;;;;;;2.00;2.00;;;24.92;96788.55;;;;116514;1197;25286;-55
2022/04/25 01:13:35;;;;;;;;;3.75;2.75;;;24.94;96792.84;;;;116430;1198;24890;-55
2022/04/25 01:16:03;;;;;;;;;3.67;1.67;;;24.92;96789.90;;;;116515;1197;25531;-55
2022/04/25 01:18:31;;;;;;;;;3.25;2.00;;;24.92;96785.80;;;;116596;1196;24946;-55
2022/04/25 01:20:59;;;;;;;;;5.00;2.00;;;24.93;96778.80;;;;116585;1198;25250;-56
2022/04/25 01:29:01;;;;;;;;;2.50;1.75;;;24.90;96778.33;;;;116823;1197;25339;-56
2022/04/25 01:31:28;;;;;;;;;2.00;1.33;;;24.90;96777.89;;;;116528;1198;24898;-56
2022/04/25 01:33:56;;;;;;;;;4.00;2.33;;;24.91;96775.82;;;;116660;1198;27243;-55
2022/04/25 01:36:24;;;;;;;;;2.00;2.00;;;24.92;96772.82;;;;116455;1197;25485;-55
2022/04/25 01:38:53;;;;;;;;;2.00;2.00;;;24.92;96769.54;;;;116490;1199;24949;-55
2022/04/25 01:41:21;;;;;;;;;2.00;2.00;;;24.93;96769.10;;;;116558;1198;24844;-55
2022/04/25 01:43:49;;;;;;;;;3.00;1.33;;;24.95;96771.23;;;;116413;1197;24745;-56
2022/04/25 01:46:17;;;;;;;;;3.00;2.00;;;24.94;96763.91;;;;116462;1198;25347;-55
2022/04/25 01:48:45;;;;;;;;;2.67;1.33;;;24.91;96756.48;;;;116744;1198;26635;-57
2022/04/25 01:51:12;;;;;;;;;1.00;1.00;;;24.89;96755.73;;;;116490;1197;25600;-55
2022/04/25 01:53:40;;;;;;;;;4.25;3.00;;;24.90;96755.21;;;;116460;1199;25294;-57
2022/04/25 01:56:08;;;;;;;;;4.00;2.25;;;24.89;96757.58;;;;116717;1196;25215;-56
2022/04/25 01:58:36;;;;;;;;;2.00;2.00;;;24.88;96750.64;;;;116756;1197;25012;-56
2022/04/25 02:01:07;;;;;;;;;1.67;1.67;;;24.87;96745.92;;;;116770;1196;25183;-56
2022/04/25 02:03:35;;;;;;;;;2.50;2.50;;;24.88;96744.00;;;;116809;1197;24738;-54
2022/04/25 02:06:03;;;;;;;;;3.00;3.00;;;24.89;96739.77;;;;116725;1197;25711;-56
2022/04/25 02:08:31;;;;;;;;;1.50;1.50;;;24.87;96750.30;;;;116794;1196;25707;-55
2022/04/25 02:13:45;;;;;;;;;3.25;2.00;;;24.87;96749.45;;;;116688;1198;24889;-56
2022/04/25 02:16:13;;;;;;;;;2.00;2.00;;;24.86;96737.45;;;;116710;1197;25084;-56
2022/04/25 02:18:41;;;;;;;;;2.33;2.33;;;24.86;96734.48;;;;116759;1196;25848;-55
2022/04/25 02:21:09;;;;;;;;;3.67;2.00;;;24.87;96741.52;;;;116777;1198;25644;-56
2022/04/25 02:23:38;;;;;;;;;2.00;2.00;;;24.86;96758.87;;;;116769;1197;25349;-56
2022/04/25 02:26:06;;;;;;;;;2.00;2.00;;;24.87;96767.55;;;;116773;1197;24723;-56
2022/04/25 02:28:35;;;;;;;;;1.50;1.50;;;24.86;96757.98;;;;116528;1198;25618;-55
2022/04/25 02:31:06;;;;;;;;;3.00;3.00;;;24.88;96748.42;;;;116445;1199;25609;-54
2022/04/25 02:33:36;;;;;;;;;2.00;2.00;;;24.88;96751.27;;;;116737;1198;25607;-55
2022/04/25 02:36:04;;;;;;;;;3.25;3.25;;;24.87;96752.96;;;;116792;1197;24785;-54
2022/04/25 02:38:33;;;;;;;;;4.33;3.00;;;24.87;96741.61;;;;116812;1196;25646;-56
2022/04/25 02:41:04;;;;;;;;;4.75;3.00;;;24.88;96748.37;;;;116764;1197;25156;-56
2022/04/25 02:43:43;;;;;;;;;3.75;2.00;;;24.86;96749.45;;;;116807;1197;25210;-56
2022/04/25 02:46:13;;;;;;;;;3.33;2.67;;;24.87;96753.04;;;;116810;1196;25873;-56
2022/04/25 02:48:43;;;;;;;;;2.75;1.75;;;24.89;96746.13;;;;116853;1197;25568;-55
2022/04/25 02:51:12;;;;;;;;;1.25;1.25;;;24.91;96749.30;;;;116798;1198;25398;-55
2022/04/25 02:53:41;;;;;;;;;2.00;2.00;;;24.91;96746.91;;;;116776;1196;24849;-56
2022/04/25 02:56:09;;;;;;;;;2.75;2.50;;;24.89;96743.79;;;;116723;1196;25265;-56
2022/04/25 02:58:39;;;;;;;;;2.00;1.75;;;24.87;96742.15;;;;116724;1198;25737;-55
2022/04/25 03:01:07;;;;;;;;;2.00;2.00;;;24.85;96742.38;;;;116766;1197;25007;-55
2022/04/25 03:03:36;;;;;;;;;2.50;2.00;;;24.85;96738.65;;;;116816;1196;25156;-56
2022/04/25 03:06:07;;;;;;;;;2.00;2.00;;;24.86;96729.45;;;;116795;1197;24970;-56
2022/04/25 03:08:35;;;;;;;;;3.33;2.00;;;24.86;96739.25;;;;116811;1197;26644;-56
2022/04/25 03:11:04;;;;;;;;;3.50;2.75;;;24.88;96744.56;;;;116496;1196;25358;-56
2022/04/25 03:13:35;;;;;;;;;3.00;2.25;;;24.87;96747.67;;;;116796;1197;26270;-56
2022/04/25 03:16:04;;;;;;;;;2.00;2.00;;;24.87;96744.14;;;;116750;1196;25507;-56
2022/04/25 03:18:33;;;;;;;;;3.00;3.00;;;24.86;96746.98;;;;116774;1196;25000;-56
2022/04/25 03:21:01;;;;;;;;;3.00;3.00;;;24.85;96744.10;;;;116807;1197;26404;-55
2022/04/25 03:23:29;;;;;;;;;2.00;2.00;;;24.86;96736.71;;;;116734;1197;24828;-55
2022/04/25 03:25:57;;;;;;;;;4.00;3.00;;;24.84;96737.85;;;;116745;1196;25452;-56
2022/04/25 03:28:25;;;;;;;;;2.75;2.00;;;24.84;96743.73;;;;116759;1196;25174;-56
2022/04/25 03:30:53;;;;;;;;;2.33;2.33;;;24.82;96733.88;;;;116774;1196;25206;-55
2022/04/25 03:33:20;;;;;;;;;2.00;2.00;;;24.82;96732.53;;;;116746;1197;24922;-56
2022/04/25 03:35:48;;;;;;;;;2.67;2.67;;;24.80;96726.29;;;;116827;1197;25348;-54
2022/04/25 03:38:18;;;;;;;;;2.00;2.00;;;24.81;96723.95;;;;116783;1197;24988;-57
2022/04/25 03:40:46;;;;;;;;;1.00;0.25;;;24.81;96721.41;;;;116769;1196;25419;-55
2022/04/25 03:43:15;;;;;;;;;4.00;2.00;;;24.81;96726.44;;;;116752;1196;25545;-56
2022/04/25 03:45:44;;;;;;;;;2.00;2.00;;;24.80;96733.95;;;;116817;1197;25783;-56
2022/04/25 03:48:12;;;;;;;;;2.00;2.00;;;24.82;96732.27;;;;116750;1197;25281;-56
2022/04/25 03:50:40;;;;;;;;;4.00;3.00;;;24.81;96731.89;;;;116510;1198;25343;-56
2022/04/25 03:53:10;;;;;;;;;3.00;3.00;;;24.80;96725.80;;;;116771;1196;24885;-55
2022/04/25 03:58:24;;;;;;;;;2.00;2.00;;;24.84;96727.66;;;;116542;1196;24835;-57
2022/04/25 04:00:52;;;;;;;;;2.00;2.00;;;24.82;96735.31;;;;116629;1196;25614;-56
2022/04/25 04:03:20;;;;;;;;;1.25;1.00;;;24.87;96742.04;;;;116504;1196;25172;-56
2022/04/25 04:05:50;;;;;;;;;3.00;3.00;;;24.85;96735.20;;;;116537;1198;25730;-57
2022/04/25 04:08:19;;;;;;;;;2.00;2.00;;;24.85;96735.83;;;;116594;1197;27253;-56
2022/04/25 04:10:46;;;;;;;;;2.00;2.00;;;24.86;96740.71;;;;116790;1197;25817;-56
2022/04/25 04:13:15;;;;;;;;;5.25;2.00;;;24.85;96730.85;;;;116728;1196;25041;-56
2022/04/25 04:15:43;;;;;;;;;2.00;1.00;;;24.84;96735.53;;;;116783;1197;25422;-57
2022/04/25 04:18:11;;;;;;;;;3.25;2.50;;;24.83;96728.45;;;;116430;1198;24774;-56
2022/04/25 04:20:39;;;;;;;;;1.00;1.00;;;24.82;96726.58;;;;116781;1196;25685;-57
2022/04/25 04:23:07;;;;;;;;;2.00;2.00;;;24.84;96725.64;;;;116501;1197;25549;-56
2022/04/25 04:25:35;;;;;;;;;3.50;2.00;;;24.84;96728.03;;;;116459;1198;24858;-55
2022/04/25 04:28:06;;;;;;;;;4.00;2.50;;;24.83;96729.11;;;;116724;1197;25147;-55
2022/04/25 04:30:34;;;;;;;;;2.25;2.25;;;24.85;96739.93;;;;116714;1198;26519;-54
2022/04/25 04:33:05;;;;;;;;;2.00;2.00;;;24.86;96727.64;;;;116619;1197;25420;-55
2022/04/25 04:38:19;;;;;;;;;4.67;2.67;;;24.88;96729.09;;;;116533;1198;24973;-55
2022/04/25 04:40:47;;;;;;;;;2.00;2.00;;;24.87;96723.76;;;;116631;1198;24807;-56
2022/04/25 04:43:15;;;;;;;;;1.00;1.00;;;24.86;96728.34;;;;116728;1197;24701;-56
2022/04/25 04:45:44;;;;;;;;;2.50;2.00;;;24.84;96724.23;;;;116780;1197;25817;-56
2022/04/25 04:48:12;;;;;;;;;1.67;1.33;;;24.86;96718.23;;;;116831;1198;25027;-57
2022/04/25 04:50:40;;;;;;;;;4.00;2.00;;;24.87;96713.05;;;;116822;1196;26253;-56
2022/04/25 04:53:08;;;;;;;;;2.33;2.33;;;24.87;96710.56;;;;116835;1197;25422;-57
2022/04/25 04:55:36;;;;;;;;;1.00;1.00;;;24.89;96709.78;;;;116778;1197;25178;-57
2022/04/25 04:58:04;;;;;;;;;2.00;2.00;;;24.89;96710.73;;;;116878;1196;25691;-56
2022/04/25 05:00:33;;;;;;;;;2.33;2.00;;;24.91;96710.61;;;;116777;1196;25063;-56
2022/04/25 05:03:01;;;;;;;;;2.25;2.25;;;24.91;96705.45;;;;116849;1196;24826;-56
2022/04/25 05:05:30;;;;;;;;;5.75;3.50;;;24.92;96696.96;;;;116782;1198;25652;-55
2022/04/25 05:07:57;;;;;;;;;4.50;2.00;;;24.91;96695.13;;;;116771;1197;25454;-55
2022/04/25 05:10:26;;;;;;;;;2.00;2.00;;;24.90;96689.27;;;;116775;1198;25084;-56
2022/04/25 05:12:54;;;;;;;;;2.00;2.00;;;24.90;96693.36;;;;116797;1196;25019;-56
2022/04/25 05:15:23;;;;;;;;;3.33;2.00;;;24.90;96692.86;;;;116787;1196;25378;-56
2022/04/25 05:17:55;;;;;;;;;3.00;3.00;;;24.90;96695.96;;;;116791;1197;25342;-56
2022/04/25 05:20:23;;;;;;;;;4.00;2.50;;;24.89;96695.21;;;;116504;1196;25703;-56
2022/04/25 05:22:52;;;;;;;;;1.00;1.00;;;24.90;96699.77;;;;116786;1196;26963;-56
2022/04/25 05:25:22;;;;;;;;;2.00;2.00;;;24.91;96697.70;;;;116742;1196;25257;-56
2022/04/25 05:27:53;;;;;;;;;2.75;1.50;;;24.91;96702.71;;;;116777;1198;24902;-56
2022/04/25 05:30:23;;;;;;;;;1.50;1.50;;;24.91;96701.33;;;;116801;1196;25013;-56
2022/04/25 05:32:56;;;;;;;;;4.00;2.33;;;24.91;96699.84;;;;116444;1198;25600;-57
2022/04/25 05:35:27;;;;;;;;;3.00;1.25;;;24.93;96699.36;;;;116614;1197;25270;-56
2022/04/25 05:37:55;;;;;;;;;2.00;2.00;;;24.96;96704.58;;;;116666;1196;25108;-56
2022/04/25 05:40:24;;;;;;;;;2.00;2.00;;;24.96;96705.90;;;;116593;1197;24958;-56
2022/04/25 05:42:53;;;;;;;;;2.00;2.00;;;24.95;96707.54;;;;116533;1197;25605;-56
2022/04/25 05:45:22;;;;;;;;;3.00;2.00;;;24.96;96705.46;;;;116526;1198;25410;-55
2022/04/25 05:47:54;;;;;;;;;3.33;2.33;;;24.96;96700.17;;;;116560;1197;25100;-56
2022/04/25 05:53:11;;;;;;;;;4.00;3.00;;;25.00;96700.00;;;;116678;1196;25599;-56
2022/04/25 05:55:39;;;;;;;;;2.00;2.00;;;25.00;96690.07;;;;116850;1198;24842;-53
2022/04/25 05:58:08;;;;;;;;;3.00;3.00;;;25.00;96681.01;;;;116519;1197;24859;-56
2022/04/25 06:00:36;;;;;;;;;2.67;1.00;;;24.99;96684.96;;;;116831;1196;25255;-56
2022/04/25 06:03:04;;;;;;;;;2.33;2.33;;;24.98;96691.39;;;;116764;1198;24998;-56
2022/04/25 06:05:31;;;;;;;;;3.25;2.00;;;24.96;96684.45;;;;116760;1198;25048;-55
2022/04/25 06:07:59;;;;;;;;;3.00;3.00;;;24.94;96682.80;;;;116766;1197;24907;-56
2022/04/25 06:10:27;;;;;;;;;2.00;2.00;;;24.92;96688.30;;;;116795;1197;24829;-56
2022/04/25 06:12:55;;;;;;;;;5.00;2.00;;;24.93;96688.14;;;;116751;1196;25508;-55
2022/04/25 06:15:24;;;;;;;;;4.25;2.00;;;24.93;96679.33;;;;116800;1198;25292;-55
2022/04/25 06:17:55;;;;;;;;;2.67;2.67;;;24.94;96677.91;;;;116790;1196;26418;-55
2022/04/25 06:20:23;;;;;;;;;2.33;2.33;;;24.96;96669.60;;;;116779;1198;25909;-56
2022/04/25 06:22:54;;;;;;;;;1.75;1.75;;;24.95;96666.14;;;;116481;1198;25655;-56
2022/04/25 06:25:24;;;;;;;;;4.75;2.25;;;24.98;96667.96;;;;116810;1197;25384;-56
2022/04/25 06:27:53;;;;;;;;;3.00;2.00;;;24.99;96664.48;;;;116765;1197;27046;-56
2022/04/25 06:30:23;;;;;;;;;1.00;1.00;;;24.99;96661.89;;;;116767;1197;25197;-56
2022/04/25 06:32:52;;;;;;;;;2.75;1.75;;;25.01;96662.84;;;;116790;1197;26410;-55
2022/04/25 06:35:20;;;;;;;;;3.33;1.00;;;25.00;96655.39;;;;116754;1198;25684;-56
2022/04/25 06:37:49;;;;;;;;;3.00;2.00;;;25.00;96648.67;;;;116760;1196;25085;-54
2022/04/25 06:40:18;;;;;;;;;1.75;1.75;;;24.99;96649.25;;;;116440;1198;24953;-55
2022/04/25 06:42:46;;;;;;;;;2.00;2.00;;;25.00;96643.03;;;;116802;1197;25602;-57
2022/04/25 06:45:15;;;;;;;;;2.00;2.00;;;25.00;96653.84;;;;116760;1197;25078;-57
2022/04/25 06:47:43;;;;;;;;;3.00;2.50;;;24.99;96660.67;;;;116845;1196;25787;-56
2022/04/25 06:50:12;;;;;;;;;2.75;1.75;;;25.02;96657.20;;;;116784;1196;25638;-57
2022/04/25 06:52:40;;;;;;;;;2.33;2.00;;;25.01;96653.20;;;;116757;1198;24998;-56
2022/04/25 06:55:08;;;;;;;;;4.67;2.00;;;25.03;96661.59;;;;116767;1197;25315;-55
2022/04/25 06:57:36;;;;;;;;;4.00;4.00;;;25.01;96661.70;;;;116741;1196;24880;-55
2022/04/25 07:00:08;;;;;;;;;2.50;2.50;;;25.00;96652.77;;;;116771;1196;25868;-56
2022/04/25 07:02:56;;;;;;;;;4.00;1.00;;;25.08;96660.10;;;;116788;1197;25561;-54
2022/04/25 07:05:25;;;;;;;;;2.25;1.25;;;25.11;96651.61;;;;116790;1197;24975;-55
2022/04/25 07:07:52;;;;;;;;;1.67;1.67;;;25.08;96644.70;;;;116777;1197;25558;-55
2022/04/25 07:10:20;;;;;;;;;3.25;3.00;;;25.07;96645.14;;;;116791;1196;25548;-55
2022/04/25 07:12:48;;;;;;;;;3.00;2.00;;;25.06;96655.06;;;;116760;1197;25105;-56
2022/04/25 07:15:16;;;;;;;;;0.67;0.67;;;25.05;96658.81;;;;116829;1197;25723;-56
2022/04/25 07:17:44;;;;;;;;;3.00;1.50;;;25.07;96668.96;;;;116736;1197;25443;-56
2022/04/25 07:20:12;;;;;;;;;3.00;2.00;;;25.06;96644.45;;;;116457;1198;24977;-56
2022/04/25 07:30:59;;;;;;;;;2.00;1.67;;;25.06;96638.12;;;;116456;1199;25497;-56
2022/04/25 07:33:27;;;;;;;;;2.00;2.00;;;25.05;96638.54;;;;116464;1196;24821;-55
2022/04/25 07:35:55;;;;;;;;;4.00;1.50;;;25.06;96636.64;;;;116765;1197;25482;-55
2022/04/25 07:38:23;;;;;;;;;2.00;2.00;;;25.06;96637.28;;;;116760;1196;25723;-56
2022/04/25 07:40:50;;;;;;;;;1.00;1.00;;;25.07;96639.55;;;;116473;1198;25532;-56
2022/04/25 07:43:18;;;;;;;;;2.67;2.67;;;25.07;96626.52;;;;116420;1199;25125;-56
2022/04/25 07:45:46;;;;;;;;;2.00;2.00;;;25.07;96622.87;;;;116466;1199;25356;-56
2022/04/25 07:48:14;;;;;;;;;1.00;1.00;;;25.08;96617.08;;;;116478;1198;24912;-55
2022/04/25 07:50:44;;;;;;;;;3.67;2.00;;;25.09;96614.20;;;;116456;1198;26227;-59
2022/04/25 07:53:12;;;;;;;;;1.33;1.33;;;25.08;96610.71;;;;116421;1199;25278;-55
2022/04/25 07:55:40;;;;;;;;;0.33;0.33;;;25.13;96613.45;;;;116452;1197;25338;-55
2022/04/25 07:58:08;;;;;;;;;5.00;2.00;;;25.15;96605.38;;;;116349;1199;25943;-57
2022/04/25 08:00:40;;;;;;;;;3.00;3.00;;;25.14;96601.95;;;;116434;1196;24987;-55
2022/04/25 08:03:08;;;;;;;;;2.00;2.00;;;25.15;96602.02;;;;116518;1199;25698;-55
2022/04/25 08:05:36;;;;;;;;;1.33;1.33;;;25.18;96595.57;;;;116429;1198;25708;-57
2022/04/25 08:08:04;;;;;;;;;1.00;1.00;;;25.20;96592.73;;;;116266;1197;24848;-59
2022/04/25 08:10:32;;;;;;;;;1.00;1.00;;;25.20;96592.83;;;;116522;1198;24772;-58
2022/04/25 08:18:32;;;;;;;;;2.33;2.33;;;25.24;96578.98;;;;116758;1197;25523;-56
2022/04/25 08:21:00;;;;;;;;;1.67;1.67;;;25.21;96579.07;;;;116550;1198;25259;-58
2022/04/25 08:23:28;;;;;;;;;1.33;1.33;;;25.20;96578.70;;;;116796;1196;25729;-55
2022/04/25 08:25:56;;;;;;;;;1.25;1.00;;;25.21;96577.44;;;;116829;1196;25335;-56
2022/04/25 08:28:25;;;;;;;;;3.00;1.67;;;25.22;96572.95;;;;116812;1196;25360;-55
2022/04/25 08:31:13;;;;;;;;;2.67;0.67;;;25.29;96567.64;;;;116761;1197;25661;-56
2022/04/25 08:33:48;;;;;;;;;4.00;2.00;;;25.33;96565.83;;;;116798;1197;25672;-56
2022/04/25 08:36:16;;;;;;;;;0.67;0.67;;;25.30;96560.09;;;;116784;1198;25177;-55
2022/04/25 08:38:45;;;;;;;;;4.50;1.75;;;25.30;96561.81;;;;116807;1196;25954;-55
2022/04/25 08:41:15;;;;;;;;;2.00;1.50;;;25.29;96553.36;;;;116818;1197;25482;-56
2022/04/25 08:43:43;;;;;;;;;3.50;2.00;;;25.29;96549.76;;;;116809;1197;25357;-55
2022/04/25 08:46:11;;;;;;;;;1.50;1.50;;;25.29;96547.79;;;;116741;1196;24971;-56
2022/04/25 08:48:40;;;;;;;;;0.33;0.33;;;25.27;96546.05;;;;116782;1197;25336;-53
2022/04/25 08:51:08;;;;;;;;;2.00;0.25;;;25.27;96541.52;;;;116812;1196;25661;-55
2022/04/25 08:53:39;;;;;;;;;1.50;1.50;;;25.27;96531.36;;;;116569;1198;25317;-55
2022/04/25 08:56:10;;;;;;;;;1.75;1.75;;;25.27;96520.20;;;;116752;1196;25250;-55
2022/04/25 08:58:41;;;;;;;;;2.33;2.00;;;25.28;96515.08;;;;116821;1197;25754;-56
2022/04/25 09:01:10;;;;;;;;;2.67;1.67;;;25.27;96509.65;;;;116757;1197;25587;-55
2022/04/25 09:03:38;;;;;;;;;2.00;2.00;;;25.29;96506.83;;;;116807;1196;25546;-57
2022/04/25 09:06:08;;;;;;;;;0.00;0.00;;;25.29;96507.80;;;;116510;1197;25182;-56
2022/04/25 09:08:37;;;;;;;;;1.00;0.50;;;25.28;96515.48;;;;116815;1197;25124;-54
2022/04/25 09:13:52;;;;;;;;;3.00;1.00;;;25.30;96559.66;;;;116804;1197;25525;-56
2022/04/25 09:16:19;;;;;;;;;1.00;1.00;;;25.29;96560.45;;;;116787;1196;25378;-56
2022/04/25 09:18:47;;;;;;;;;2.00;2.00;;;25.28;96578.17;;;;116770;1197;26382;-56
2022/04/25 09:21:15;;;;;;;;;4.00;2.25;;;25.27;96585.05;;;;116766;1198;25683;-56
2022/04/25 09:23:43;;;;;;;;;1.00;1.00;;;25.25;96585.56;;;;116444;1198;26597;-56
2022/04/25 09:26:15;;;;;;;;;3.25;3.25;;;25.24;96597.48;;;;116768;1197;25487;-56
2022/04/25 09:28:51;;;;;;;;;2.00;1.00;;;25.24;96599.98;;;;116789;1197;25384;-56
2022/04/25 09:31:22;;;;;;;;;3.25;0.75;;;25.25;96601.09;;;;116511;1198;25347;-57
2022/04/25 09:33:50;;;;;;;;;2.00;1.50;;;25.26;96598.48;;;;116814;1196;25147;-55
2022/04/25 09:36:18;;;;;;;;;1.00;1.00;;;25.25;96588.23;;;;116807;1197;24882;-56
2022/04/25 09:38:45;;;;;;;;;0.50;0.25;;;25.23;96577.13;;;;116437;1198;26141;-56
2022/04/25 09:41:15;;;;;;;;;1.33;1.33;;;25.20;96570.67;;;;116797;1197;25746;-55
2022/04/25 09:43:44;;;;;;;;;1.00;1.00;;;25.21;96561.57;;;;116830;1197;25453;-56
2022/04/25 09:46:14;;;;;;;;;1.00;1.00;;;25.21;96555.77;;;;116824;1197;25349;-56
2022/04/25 09:49:01;;;;;;;;;0.50;0.50;;;25.22;96553.23;;;;116816;1197;24903;-55
2022/04/25 09:51:30;;;;;;;;;2.33;2.00;;;25.27;96568.90;;;;116777;1197;25684;-55
2022/04/25 09:53:58;;;;;;;;;4.75;3.00;;;25.27;96611.59;;;;116832;1196;25155;-55
2022/04/25 09:56:29;;;;;;;;;2.67;2.67;;;25.24;96655.70;;;;116806;1196;24979;-55
2022/04/25 09:59:08;;;;;;;;;0.50;0.50;;;25.23;96675.29;;;;116790;1196;25672;-56
2022/04/25 10:01:39;;;;;;;;;1.00;1.00;;;25.22;96687.77;;;;116596;1196;24939;-55
2022/04/25 10:04:32;;;;;;;;;2.67;2.00;;;25.20;96686.30;;;;116584;1196;25476;-55
2022/04/25 10:07:03;;;;;;;;;2.00;2.00;;;25.28;96678.90;;;;116493;1198;24869;-55
2022/04/25 10:09:33;;;;;;;;;0.33;0.33;;;25.27;96694.05;;;;116621;1196;26554;-56
2022/04/25 10:12:04;;;;;;;;;2.00;0.50;;;25.24;96714.40;;;;116745;1198;25826;-56
2022/04/25 10:14:32;;;;;;;;;2.00;1.50;;;25.21;96731.08;;;;116461;1198;25227;-55
2022/04/25 10:17:00;;;;;;;;;1.75;1.50;;;25.16;96743.20;;;;116827;1197;25100;-57
2022/04/25 10:19:29;;;;;;;;;4.00;2.00;;;25.16;96755.71;;;;116836;1197;25128;-56
2022/04/25 10:21:58;;;;;;;;;1.00;1.00;;;25.15;96766.98;;;;116774;1196;24952;-57
2022/04/25 10:24:26;;;;;;;;;4.00;2.00;;;25.14;96776.02;;;;116552;1198;25575;-56
2022/04/25 10:26:57;;;;;;;;;1.75;1.75;;;25.13;96793.42;;;;116764;1198;25696;-57
2022/04/25 10:29:34;;;;;;;;;1.50;1.50;;;25.12;96799.30;;;;116469;1198;24853;-57
2022/04/25 10:32:04;;;;;;;;;1.50;1.50;;;25.12;96789.34;;;;116809;1196;25423;-56
2022/04/25 10:34:46;;;;;;;;;0.50;0.50;;;25.12;96787.88;;;;116796;1197;25276;-57
2022/04/25 10:37:48;;;;;;;;;2.75;2.25;;;25.13;96801.57;;;;116760;1197;25450;-56
2022/04/25 10:44:10;;;;;;;;;1.50;1.50;;;25.18;96810.19;;;;116427;1196;24874;-55
2022/04/25 10:46:03;;;;;;;;;3.25;2.00;;;25.21;96806.04;;;;116748;1196;25641;-55
2022/04/25 10:49:03;;;;;;;;;4.33;2.67;;;25.16;96802.04;;;;116842;1196;25068;-56
2022/04/25 10:51:39;;;;;;;;;2.00;2.00;;;25.24;96796.64;;;;116774;1197;25045;-55
2022/04/25 10:54:08;;;;;;;;;2.00;2.00;;;25.22;96797.63;;;;116827;1197;25645;-55
2022/04/25 10:57:08;;;;;;;;;2.00;1.00;;;25.21;96796.80;;;;116759;1197;24767;-55
2022/04/25 10:59:39;;;;;;;;;3.00;2.00;;;25.29;96806.23;;;;116793;1197;26466;-55
2022/04/25 11:02:28;;;;;;;;;2.00;2.00;;;25.29;96813.52;;;;116816;1198;25445;-56
2022/04/25 11:05:11;;;;;;;;;4.00;2.50;;;25.32;96824.90;;;;116777;1198;25668;-55
2022/04/25 11:07:40;;;;;;;;;2.00;2.00;;;25.33;96828.10;;;;116799;1197;25015;-57
2022/04/25 11:10:10;;;;;;;;;2.67;2.00;;;25.31;96837.60;;;;116527;1196;24837;-54
2022/04/25 11:12:57;;;;;;;;;3.00;2.00;;;25.29;96843.23;;;;116487;1198;25308;-54
2022/04/25 11:15:42;;;;;;;;;1.33;1.33;;;25.30;96843.13;;;;116823;1196;25800;-56
2022/04/25 11:21:13;;;;;;;;;0.50;0.50;;;25.34;96838.17;;;;116777;1197;25158;-56
2022/04/25 11:23:43;;;;;;;;;1.50;1.50;;;25.32;96836.17;;;;116785;1197;25412;-57
2022/04/25 11:26:36;;;;;;;;;3.00;0.75;;;25.31;96833.87;;;;116740;1197;26271;-55
2022/04/25 11:29:08;;;;;;;;;1.00;1.00;;;25.38;96834.54;;;;116794;1198;26698;-55
2022/04/25 11:31:38;;;;;;;;;2.00;2.00;;;25.40;96833.89;;;;116748;1196;25709;-56
2022/04/25 11:34:11;;;;;;;;;1.25;1.25;;;25.38;96837.92;;;;116823;1196;26060;-55
2022/04/25 11:36:42;;;;;;;;;1.67;0.33;;;25.36;96842.75;;;;116777;1198;24967;-54
2022/04/25 11:42:06;;;;;;;;;3.00;1.50;;;25.41;96852.87;;;;116722;1196;25482;-56
2022/04/25 11:44:38;;;;;;;;;2.67;1.67;;;25.36;96856.11;;;;116803;1197;25651;-56
2022/04/25 11:47:06;;;;;;;;;1.25;1.25;;;25.37;96848.27;;;;116854;1197;24873;-56
2022/04/25 11:49:38;;;;;;;;;2.67;2.00;;;25.39;96847.76;;;;116780;1196;25615;-56
2022/04/25 11:52:06;;;;;;;;;2.00;2.00;;;25.35;96852.71;;;;116803;1197;25084;-55
2022/04/25 11:54:34;;;;;;;;;3.67;2.33;;;25.33;96856.84;;;;116537;1198;25612;-54
2022/04/25 11:57:03;;;;;;;;;1.00;1.00;;;25.33;96855.84;;;;116541;1196;25481;-57
2022/04/25 11:59:31;;;;;;;;;1.25;1.25;;;25.32;96857.15;;;;116623;1197;24872;-56
2022/04/25 12:01:59;;;;;;;;;3.00;2.00;;;25.31;96856.77;;;;116649;1198;25276;-57
2022/04/25 12:04:30;;;;;;;;;2.00;2.00;;;25.30;96857.16;;;;116782;1196;25375;-57
2022/04/25 12:07:11;;;;;;;;;1.00;1.00;;;25.31;96862.02;;;;116781;1197;25777;-57
2022/04/25 12:15:36;;;;;;;;;1.00;1.00;;;25.32;96860.46;;;;116777;1196;24931;-56
2022/04/25 12:18:18;;;;;;;;;2.00;2.00;;;25.34;96860.77;;;;116776;1196;25169;-55
2022/04/25 12:20:57;;;;;;;;;2.33;1.00;;;25.33;96869.20;;;;116777;1197;25497;-56
2022/04/25 12:23:27;;;;;;;;;3.25;1.75;;;25.33;96867.83;;;;116797;1197;25625;-56
2022/04/25 12:25:56;;;;;;;;;0.67;0.67;;;25.35;96873.61;;;;116798;1196;25838;-56
2022/04/25 12:28:26;;;;;;;;;4.00;2.00;;;25.34;96872.60;;;;116803;1196;25676;-56
2022/04/25 12:31:00;;;;;;;;;0.50;0.50;;;25.36;96873.08;;;;116801;1196;25252;-56
2022/04/25 12:33:39;;;;;;;;;2.00;2.00;;;25.35;96875.75;;;;116824;1197;25451;-56
2022/04/25 12:36:06;;;;;;;;;1.00;1.00;;;25.37;96883.61;;;;116796;1197;25413;-56
2022/04/25 12:38:38;;;;;;;;;2.25;1.50;;;25.37;96881.16;;;;116763;1198;25704;-56
2022/04/25 12:41:06;;;;;;;;;1.00;1.00;;;25.35;96880.58;;;;116832;1196;25723;-56
2022/04/25 12:43:42;;;;;;;;;1.67;1.00;;;25.38;96882.27;;;;116796;1198;25714;-56
2022/04/25 12:46:12;;;;;;;;;1.00;1.00;;;25.36;96884.34;;;;116801;1196;25543;-55
2022/04/25 12:48:59;;;;;;;;;1.00;1.00;;;25.37;96884.41;;;;116785;1197;26301;-56
2022/04/25 12:51:37;;;;;;;;;2.00;2.00;;;25.37;96887.81;;;;116810;1197;25591;-57
2022/04/25 12:54:19;;;;;;;;;1.25;1.25;;;25.36;96892.39;;;;116841;1197;24909;-56
2022/04/25 12:56:48;;;;;;;;;2.50;2.50;;;25.41;96889.31;;;;116777;1197;26350;-55
2022/04/25 12:59:30;;;;;;;;;2.67;1.33;;;25.42;96887.13;;;;116815;1196;24915;-57
2022/04/25 13:02:01;;;;;;;;;3.00;1.00;;;25.40;96888.95;;;;116799;1196;25201;-55
2022/04/25 13:04:30;;;;;;;;;2.00;1.50;;;25.38;96889.45;;;;116800;1196;25082;-56
2022/04/25 13:07:02;;;;;;;;;2.25;1.00;;;25.38;96891.60;;;;116876;1196;25328;-56
2022/04/25 13:09:30;;;;;;;;;0.75;0.75;;;25.40;96891.94;;;;116802;1197;25152;-55
2022/04/25 13:11:58;;;;;;;;;3.67;2.33;;;25.38;96893.82;;;;116817;1196;24798;-56